Wetterdaten: aktuell Montag, 04.05.2026 11:18
Datum Zeit Temp. A. Feuchte A. Luftdruck Regen Wind Richtung Richtung Sonnenschein Regendauer Taupunkt Windchill
04.05.2026 11:18 22,0 °C 53 % 1012,3 hPa 0,0 mm 15,2 km/h (3 Bft) S-SO 155 ° 5 min 0 min 12,0 °C 22,0 °C
04.05.2026 11:13 21,4 °C 54 % 1011,3 hPa 0,0 mm 19,7 km/h (3 Bft) S-SO 155 ° 5 min 0 min 11,7 °C 21,4 °C
04.05.2026 11:08 20,9 °C 56 % 1011,4 hPa 0,0 mm 22,6 km/h (4 Bft) S-SO 165 ° 5 min 0 min 11,8 °C 20,9 °C
04.05.2026 11:03 20,8 °C 56 % 1011,4 hPa 0,0 mm 16,3 km/h (3 Bft) S-SO 165 ° 6 min 0 min 11,7 °C 20,8 °C
04.05.2026 10:58 21,4 °C 56 % 1012,4 hPa 0,0 mm 15,4 km/h (3 Bft) W 275 ° 5 min 0 min 12,3 °C 21,4 °C
04.05.2026 10:53 21,0 °C 54 % 1012,4 hPa 0,0 mm 12,2 km/h (2 Bft) SO 135 ° 5 min 0 min 11,3 °C 21,0 °C
04.05.2026 10:48 20,7 °C 56 % 1012,5 hPa 0,0 mm 17,8 km/h (3 Bft) S-SO 165 ° 5 min 0 min 11,6 °C 20,7 °C
04.05.2026 10:43 20,5 °C 57 % 1011,5 hPa 0,0 mm 8,2 km/h (2 Bft) S-SO 155 ° 5 min 0 min 11,7 °C 20,5 °C
04.05.2026 10:38 19,9 °C 57 % 1011,6 hPa 0,0 mm 8,9 km/h (2 Bft) N-NO 15 ° 4 min 0 min 11,1 °C 19,9 °C
04.05.2026 10:33 19,9 °C 58 % 1011,6 hPa 0,0 mm 9,6 km/h (2 Bft) S-SO 155 ° 6 min 0 min 11,4 °C 19,9 °C
04.05.2026 10:28 19,6 °C 58 % 1012,7 hPa 0,0 mm 9,8 km/h (2 Bft) SO 125 ° 3 min 0 min 11,1 °C 19,6 °C
04.05.2026 10:23 20,1 °C 57 % 1012,6 hPa 0,0 mm 9,6 km/h (2 Bft) SO 140 ° 7 min 0 min 11,3 °C 20,1 °C
04.05.2026 10:18 19,7 °C 57 % 1012,7 hPa 0,0 mm 10,9 km/h (2 Bft) SO 135 ° 3 min 0 min 10,9 °C 19,7 °C
04.05.2026 10:13 19,4 °C 57 % 1012,7 hPa 0,0 mm 7,1 km/h (2 Bft) O 100 ° 7 min 0 min 10,7 °C 19,4 °C
04.05.2026 10:08 18,9 °C 61 % 1012,8 hPa 0,0 mm 15,8 km/h (3 Bft) SO 145 ° 5 min 0 min 11,2 °C 18,9 °C
04.05.2026 10:03 18,6 °C 59 % 1012,9 hPa 0,0 mm 17,6 km/h (3 Bft) O-SO 110 ° 3 min 0 min 10,4 °C 18,6 °C
04.05.2026 09:58 18,7 °C 59 % 1012,9 hPa 0,0 mm 14,9 km/h (3 Bft) O 95 ° 5 min 0 min 10,5 °C 18,7 °C
04.05.2026 09:53 18,6 °C 61 % 1012,9 hPa 0,0 mm 17,0 km/h (3 Bft) O-NO 70 ° 5 min 0 min 10,9 °C 18,6 °C
04.05.2026 09:48 18,6 °C 61 % 1012,9 hPa 0,0 mm 8,0 km/h (2 Bft) W-SW 240 ° 5 min 0 min 10,9 °C 18,6 °C
04.05.2026 09:43 18,6 °C 61 % 1012,9 hPa 0,0 mm 0,2 km/h (0 Bft) NO 45 ° 5 min 0 min 10,9 °C 18,6 °C
04.05.2026 09:38 17,8 °C 63 % 1013,0 hPa 0,0 mm 5,5 km/h (2 Bft) O-SO 120 ° 5 min 0 min 10,7 °C 17,8 °C
04.05.2026 09:33 17,4 °C 63 % 1013,1 hPa 0,0 mm 7,4 km/h (2 Bft) SO 125 ° 2 min 0 min 10,3 °C 17,4 °C
04.05.2026 09:28 17,1 °C 62 % 1012,1 hPa 0,0 mm 8,2 km/h (2 Bft) SW 235 ° 0 min 0 min 9,8 °C 17,1 °C
04.05.2026 09:23 17,3 °C 62 % 1012,1 hPa 0,0 mm 9,6 km/h (2 Bft) O 100 ° 2 min 0 min 9,9 °C 17,3 °C
04.05.2026 09:18 17,4 °C 62 % 1012,0 hPa 0,0 mm 0,4 km/h (0 Bft) O 80 ° 4 min 0 min 10,0 °C 17,4 °C
04.05.2026 09:13 16,8 °C 63 % 1013,2 hPa 0,0 mm 2,9 km/h (1 Bft) S-SW 205 ° 6 min 0 min 9,7 °C 16,8 °C
04.05.2026 09:08 16,7 °C 63 % 1013,2 hPa 0,0 mm 7,8 km/h (2 Bft) SO 125 ° 5 min 0 min 9,6 °C 16,7 °C
04.05.2026 09:03 17,4 °C 61 % 1013,1 hPa 0,0 mm 5,5 km/h (2 Bft) SO 145 ° 5 min 0 min 9,8 °C 17,4 °C
04.05.2026 08:58 17,4 °C 63 % 1012,0 hPa 0,0 mm 0,0 km/h (0 Bft) O-NO 60 ° 5 min 0 min 10,3 °C 17,4 °C
04.05.2026 08:53 16,9 °C 64 % 1012,1 hPa 0,0 mm 0,0 km/h (0 Bft) SW 220 ° 4 min 0 min 10,0 °C 16,9 °C
04.05.2026 08:48 16,8 °C 63 % 1012,2 hPa 0,0 mm 0,0 km/h (0 Bft) S-SO 165 ° 6 min 0 min 9,7 °C 16,8 °C
04.05.2026 08:43 16,4 °C 64 % 1013,3 hPa 0,0 mm 0,0 km/h (0 Bft) S-SO 155 ° 5 min 0 min 9,6 °C 16,4 °C
04.05.2026 08:38 15,6 °C 67 % 1013,4 hPa 0,0 mm 0,0 km/h (0 Bft) W-SW 240 ° 6 min 0 min 9,5 °C 15,6 °C
04.05.2026 08:33 15,5 °C 67 % 1013,5 hPa 0,0 mm 0,0 km/h (0 Bft) S 185 ° 4 min 0 min 9,4 °C 15,5 °C
04.05.2026 08:28 15,0 °C 69 % 1013,5 hPa 0,0 mm 0,0 km/h (0 Bft) S-SO 160 ° 4 min 0 min 9,4 °C 15,0 °C
04.05.2026 08:23 14,8 °C 69 % 1013,6 hPa 0,0 mm 4,4 km/h (1 Bft) O 100 ° 5 min 0 min 9,2 °C 14,8 °C
04.05.2026 08:18 14,6 °C 72 % 1013,6 hPa 0,0 mm 4,2 km/h (1 Bft) W 265 ° 2 min 0 min 9,6 °C 14,6 °C
04.05.2026 08:13 13,6 °C 75 % 1012,8 hPa 0,0 mm 0,0 km/h (0 Bft) O-SO 105 ° 5 min 0 min 9,3 °C 13,6 °C
04.05.2026 08:08 12,9 °C 76 % 1012,9 hPa 0,0 mm 0,0 km/h (0 Bft) W-SW 240 ° 0 min 0 min 8,8 °C 12,9 °C
04.05.2026 08:03 12,4 °C 77 % 1013,0 hPa 0,0 mm 3,4 km/h (1 Bft) W-NW 285 ° 0 min 0 min 8,5 °C 12,4 °C
04.05.2026 07:58 12,4 °C 77 % 1013,0 hPa 0,0 mm 7,6 km/h (2 Bft) O-SO 115 ° 0 min 0 min 8,5 °C 12,4 °C
04.05.2026 07:53 12,9 °C 77 % 1012,9 hPa 0,0 mm 2,9 km/h (1 Bft) S 185 ° 0 min 0 min 9,0 °C 12,9 °C
04.05.2026 07:48 12,7 °C 76 % 1012,9 hPa 0,0 mm 5,5 km/h (2 Bft) S 170 ° 0 min 0 min 8,6 °C 12,7 °C
04.05.2026 07:43 12,6 °C 75 % 1013,0 hPa 0,0 mm 3,4 km/h (1 Bft) SW 220 ° 0 min 0 min 8,3 °C 12,6 °C
04.05.2026 07:38 12,4 °C 75 % 1013,0 hPa 0,0 mm 0,0 km/h (0 Bft) SW 220 ° 0 min 0 min 8,1 °C 12,4 °C
04.05.2026 07:33 12,2 °C 74 % 1013,0 hPa 0,0 mm 0,0 km/h (0 Bft) N-NW 340 ° 0 min 0 min 7,7 °C 12,2 °C
04.05.2026 07:28 12,9 °C 74 % 1012,9 hPa 0,0 mm 0,0 km/h (0 Bft) NO 40 ° 0 min 0 min 8,4 °C 12,9 °C
04.05.2026 07:23 12,7 °C 75 % 1012,9 hPa 0,0 mm 0,0 km/h (0 Bft) O 95 ° 0 min 0 min 8,4 °C 12,7 °C
04.05.2026 07:18 12,6 °C 76 % 1013,0 hPa 0,0 mm 0,0 km/h (0 Bft) NW 305 ° 0 min 0 min 8,5 °C 12,6 °C
_ Min-Zeit 05:33 16:57 17:47 - 17:57 - - - - 18:42 05:33
Minimum _ 10,4 °C 21 % 1007,0 hPa - 0,0 km/h (0 Bft) - - - - 2,3 °C 10,4 °C
_ Max-Zeit 16:07 06:48 07:03 12:02 13:22 - - 12:57 12:02 10:58 16:07
Maximum _ 28,6 °C 79 % 1014,2 hPa 0,0 mm 23,9 km/h
S-SO (4 Bft)
- - 7 min 0 min 12,3 °C 28,6 °C
Durchschnitt _ 19,7 °C 47 % 1010,7 hPa #0,0 mm 6,2 km/h (2 Bft) W - #2:54 h #0 min. 6,9 °C 19,7 °C